sensor_id;sensor_type;location;lat;lon;timestamp;pressure;altitude;pressure_sealevel;temperature;humidity
13241;BME280;6687;47.790;7.322;2022-09-03T06:13:14;98588.16;;;18.78;82.72
13241;BME280;6687;47.790;7.322;2022-09-03T06:15:41;98587.84;;;18.87;77.46
13241;BME280;6687;47.790;7.322;2022-09-03T06:18:07;98585.75;;;18.96;77.29
13241;BME280;6687;47.790;7.322;2022-09-03T06:20:34;98587.59;;;18.94;75.17
13241;BME280;6687;47.790;7.322;2022-09-03T06:23:01;98581.66;;;19.12;73.13
13241;BME280;6687;47.790;7.322;2022-09-03T06:25:28;98584.09;;;19.17;72.87
13241;BME280;6687;47.790;7.322;2022-09-03T06:27:56;98580.69;;;19.37;71.34
13241;BME280;6687;47.790;7.322;2022-09-03T06:30:24;98580.16;;;19.49;70.87
13241;BME280;6687;47.790;7.322;2022-09-03T06:32:51;98588.84;;;19.51;70.93
13241;BME280;6687;47.790;7.322;2022-09-03T06:35:18;98583.09;;;19.63;70.82
13241;BME280;6687;47.790;7.322;2022-09-03T06:37:45;98584.47;;;19.74;70.16
13241;BME280;6687;47.790;7.322;2022-09-03T06:40:11;98581.75;;;19.75;69.94
13241;BME280;6687;47.790;7.322;2022-09-03T06:42:38;98585.78;;;19.84;69.35
13241;BME280;6687;47.790;7.322;2022-09-03T06:45:07;98583.81;;;19.89;69.77
13241;BME280;6687;47.790;7.322;2022-09-03T06:47:36;98582.44;;;20.01;70.00
13241;BME280;6687;47.790;7.322;2022-09-03T06:50:03;98573.63;;;20.02;70.88
13241;BME280;6687;47.790;7.322;2022-09-03T06:52:30;98574.94;;;20.12;69.10
13241;BME280;6687;47.790;7.322;2022-09-03T06:54:56;98571.94;;;20.21;68.87
13241;BME280;6687;47.790;7.322;2022-09-03T06:57:23;98560.13;;;20.30;69.59
13241;BME280;6687;47.790;7.322;2022-09-03T06:59:50;98559.78;;;20.38;69.54
13241;BME280;6687;47.790;7.322;2022-09-03T07:02:18;98555.94;;;20.45;69.03
13241;BME280;6687;47.790;7.322;2022-09-03T07:04:48;98556.25;;;20.58;69.83
13241;BME280;6687;47.790;7.322;2022-09-03T07:07:15;98566.59;;;20.62;69.86
13241;BME280;6687;47.790;7.322;2022-09-03T07:09:42;98570.69;;;20.70;71.13
13241;BME280;6687;47.790;7.322;2022-09-03T07:12:09;98579.31;;;20.73;70.58
13241;BME280;6687;47.790;7.322;2022-09-03T07:14:40;98580.09;;;20.75;69.96
13241;BME280;6687;47.790;7.322;2022-09-03T07:17:06;98578.06;;;20.80;69.60
13241;BME280;6687;47.790;7.322;2022-09-03T07:19:33;98570.81;;;20.85;69.89
13241;BME280;6687;47.790;7.322;2022-09-03T07:22:01;98568.69;;;20.94;70.47
13241;BME280;6687;47.790;7.322;2022-09-03T07:24:28;98564.84;;;21.01;70.27
13241;BME280;6687;47.790;7.322;2022-09-03T07:26:54;98568.09;;;21.06;70.62
13241;BME280;6687;47.790;7.322;2022-09-03T07:29:22;98576.66;;;21.11;70.73
13241;BME280;6687;47.790;7.322;2022-09-03T07:31:50;98580.31;;;21.26;71.34
13241;BME280;6687;47.790;7.322;2022-09-03T07:34:16;98574.22;;;21.25;71.42
13241;BME280;6687;47.790;7.322;2022-09-03T07:36:45;98575.59;;;21.33;70.50
13241;BME280;6687;47.790;7.322;2022-09-03T07:39:13;98584.66;;;21.46;69.27
13241;BME280;6687;47.790;7.322;2022-09-03T07:41:41;98581.44;;;21.58;68.85
13241;BME280;6687;47.790;7.322;2022-09-03T07:44:10;98582.91;;;21.64;68.21
13241;BME280;6687;47.790;7.322;2022-09-03T07:46:37;98585.81;;;21.77;68.11
13241;BME280;6687;47.790;7.322;2022-09-03T07:49:05;98586.88;;;21.90;67.50
13241;BME280;6687;47.790;7.322;2022-09-03T07:51:33;98592.94;;;21.92;67.08
13241;BME280;6687;47.790;7.322;2022-09-03T07:54:02;98593.00;;;22.08;67.25
13241;BME280;6687;47.790;7.322;2022-09-03T07:56:33;98600.22;;;22.22;67.09
13241;BME280;6687;47.790;7.322;2022-09-03T07:59:00;98604.56;;;22.23;66.38
13241;BME280;6687;47.790;7.322;2022-09-03T08:01:29;98617.25;;;22.34;65.82
13241;BME280;6687;47.790;7.322;2022-09-03T08:03:57;98618.69;;;22.22;65.23
13241;BME280;6687;47.790;7.322;2022-09-03T08:06:25;98614.44;;;22.37;65.55
13241;BME280;6687;47.790;7.322;2022-09-03T08:08:56;98617.78;;;22.40;65.42
13241;BME280;6687;47.790;7.322;2022-09-03T08:11:25;98627.31;;;22.43;64.83
13241;BME280;6687;47.790;7.322;2022-09-03T08:13:56;98621.03;;;22.46;64.80
13241;BME280;6687;47.790;7.322;2022-09-03T08:16:25;98630.09;;;22.57;65.09
13241;BME280;6687;47.790;7.322;2022-09-03T08:18:52;98634.34;;;22.60;63.66
13241;BME280;6687;47.790;7.322;2022-09-03T08:21:21;98639.34;;;22.66;64.10
13241;BME280;6687;47.790;7.322;2022-09-03T08:23:50;98636.91;;;22.61;63.82
13241;BME280;6687;47.790;7.322;2022-09-03T08:26:18;98644.38;;;22.71;63.26
13241;BME280;6687;47.790;7.322;2022-09-03T08:28:45;98652.22;;;22.72;63.44
13241;BME280;6687;47.790;7.322;2022-09-03T08:31:14;98648.31;;;22.62;63.83
13241;BME280;6687;47.790;7.322;2022-09-03T08:33:43;98647.66;;;22.58;64.36
13241;BME280;6687;47.790;7.322;2022-09-03T08:36:11;98646.06;;;22.38;66.56
13241;BME280;6687;47.790;7.322;2022-09-03T08:38:39;98650.06;;;22.46;65.32
13241;BME280;6687;47.790;7.322;2022-09-03T08:41:11;98656.44;;;22.41;65.63
13241;BME280;6687;47.790;7.322;2022-09-03T08:44:05;98670.91;;;22.34;66.16
13241;BME280;6687;47.790;7.322;2022-09-03T08:46:45;98675.84;;;22.23;66.16
13241;BME280;6687;47.790;7.322;2022-09-03T08:49:14;98687.56;;;22.17;65.65
13241;BME280;6687;47.790;7.322;2022-09-03T08:51:44;98687.78;;;22.13;65.88
13241;BME280;6687;47.790;7.322;2022-09-03T08:54:13;98697.47;;;22.12;65.26
13241;BME280;6687;47.790;7.322;2022-09-03T08:56:42;98722.47;;;22.05;65.94
13241;BME280;6687;47.790;7.322;2022-09-03T08:59:09;98725.47;;;21.97;65.98
13241;BME280;6687;47.790;7.322;2022-09-03T09:01:44;98742.44;;;21.92;65.81
13241;BME280;6687;47.790;7.322;2022-09-03T09:04:23;98756.59;;;21.91;66.14
13241;BME280;6687;47.790;7.322;2022-09-03T09:07:02;98766.72;;;21.81;65.59
13241;BME280;6687;47.790;7.322;2022-09-03T09:09:35;98794.50;;;21.50;68.22
13241;BME280;6687;47.790;7.322;2022-09-03T09:12:13;98787.28;;;21.35;69.59
13241;BME280;6687;47.790;7.322;2022-09-03T09:17:40;98794.81;;;20.40;73.79
13241;BME280;6687;47.790;7.322;2022-09-03T09:20:16;98780.00;;;20.37;73.47
13241;BME280;6687;47.790;7.322;2022-09-03T09:22:46;98774.59;;;20.40;72.50
13241;BME280;6687;47.790;7.322;2022-09-03T09:25:17;98768.38;;;20.21;74.14
13241;BME280;6687;47.790;7.322;2022-09-03T09:27:49;98766.16;;;20.32;72.93
13241;BME280;6687;47.790;7.322;2022-09-03T09:30:17;98762.75;;;19.86;75.49
13241;BME280;6687;47.790;7.322;2022-09-03T09:32:46;98766.19;;;19.88;75.42
13241;BME280;6687;47.790;7.322;2022-09-03T09:35:13;98768.91;;;19.85;75.49
13241;BME280;6687;47.790;7.322;2022-09-03T09:37:51;98781.00;;;19.65;76.08
13241;BME280;6687;47.790;7.322;2022-09-03T09:40:23;98788.25;;;19.60;77.46
13241;BME280;6687;47.790;7.322;2022-09-03T09:42:51;98793.41;;;18.90;82.93
13241;BME280;6687;47.790;7.322;2022-09-03T09:45:23;98798.94;;;19.07;82.81
13241;BME280;6687;47.790;7.322;2022-09-03T09:47:55;98791.53;;;18.93;83.90
13241;BME280;6687;47.790;7.322;2022-09-03T09:50:21;98796.69;;;18.96;83.99
13241;BME280;6687;47.790;7.322;2022-09-03T09:52:59;98797.63;;;18.94;83.88
13241;BME280;6687;47.790;7.322;2022-09-03T09:55:27;98799.53;;;19.39;79.41
13241;BME280;6687;47.790;7.322;2022-09-03T09:58:03;98784.47;;;19.20;79.71
13241;BME280;6687;47.790;7.322;2022-09-03T10:00:30;98788.13;;;19.16;82.37
13241;BME280;6687;47.790;7.322;2022-09-03T10:03:00;98794.00;;;19.23;79.61
13241;BME280;6687;47.790;7.322;2022-09-03T10:05:28;98792.69;;;19.35;77.62
13241;BME280;6687;47.790;7.322;2022-09-03T10:07:59;98785.94;;;19.27;77.67
13241;BME280;6687;47.790;7.322;2022-09-03T10:10:28;98780.03;;;19.46;75.98
13241;BME280;6687;47.790;7.322;2022-09-03T10:13:01;98775.19;;;19.34;78.67
13241;BME280;6687;47.790;7.322;2022-09-03T10:15:36;98771.78;;;19.32;78.52
13241;BME280;6687;47.790;7.322;2022-09-03T10:18:11;98766.50;;;19.32;77.75
13241;BME280;6687;47.790;7.322;2022-09-03T10:20:44;98769.50;;;19.46;75.94
13241;BME280;6687;47.790;7.322;2022-09-03T10:23:15;98782.00;;;19.63;76.34
13241;BME280;6687;47.790;7.322;2022-09-03T10:25:54;98783.38;;;19.73;74.98
13241;BME280;6687;47.790;7.322;2022-09-03T10:28:26;98785.25;;;19.93;73.03
13241;BME280;6687;47.790;7.322;2022-09-03T10:31:34;98791.50;;;20.13;74.05
13241;BME280;6687;47.790;7.322;2022-09-03T10:34:09;98793.34;;;20.11;74.44
13241;BME280;6687;47.790;7.322;2022-09-03T10:36:45;98790.06;;;20.48;73.65
13241;BME280;6687;47.790;7.322;2022-09-03T10:39:20;98776.53;;;20.57;72.77
13241;BME280;6687;47.790;7.322;2022-09-03T10:41:57;98768.22;;;20.68;77.80
13241;BME280;6687;47.790;7.322;2022-09-03T10:44:43;98767.41;;;20.86;69.58
13241;BME280;6687;47.790;7.322;2022-09-03T10:47:24;98767.53;;;21.04;70.25
13241;BME280;6687;47.790;7.322;2022-09-03T10:50:02;98774.38;;;21.08;76.16
13241;BME280;6687;47.790;7.322;2022-09-03T10:52:42;98774.34;;;21.29;70.23
13241;BME280;6687;47.790;7.322;2022-09-03T10:55:19;98771.28;;;21.38;69.55
13241;BME280;6687;47.790;7.322;2022-09-03T10:57:50;98769.25;;;21.44;75.02
13241;BME280;6687;47.790;7.322;2022-09-03T11:00:21;98775.69;;;21.58;75.27
13241;BME280;6687;47.790;7.322;2022-09-03T11:05:57;98778.09;;;21.62;75.93
13241;BME280;6687;47.790;7.322;2022-09-03T11:08:28;98776.53;;;21.96;80.34
13241;BME280;6687;47.790;7.322;2022-09-03T11:11:01;98767.56;;;21.81;75.65
13241;BME280;6687;47.790;7.322;2022-09-03T11:13:34;98772.41;;;21.91;70.78
13241;BME280;6687;47.790;7.322;2022-09-03T11:16:07;98772.06;;;22.16;69.55
13241;BME280;6687;47.790;7.322;2022-09-03T11:18:40;98766.22;;;22.28;69.34
13241;BME280;6687;47.790;7.322;2022-09-03T11:21:12;98765.16;;;22.50;73.72
13241;BME280;6687;47.790;7.322;2022-09-03T11:23:42;98758.66;;;22.57;73.20
13241;BME280;6687;47.790;7.322;2022-09-03T11:26:14;98764.38;;;22.82;68.40
13241;BME280;6687;47.790;7.322;2022-09-03T11:28:48;98761.09;;;22.95;67.21
13241;BME280;6687;47.790;7.322;2022-09-03T11:31:24;98761.00;;;23.14;66.85
13241;BME280;6687;47.790;7.322;2022-09-03T11:33:59;98760.75;;;23.36;66.56
13241;BME280;6687;47.790;7.322;2022-09-03T11:36:33;98751.38;;;23.46;69.87
13241;BME280;6687;47.790;7.322;2022-09-03T11:39:11;98744.22;;;23.48;71.57
13241;BME280;6687;47.790;7.322;2022-09-03T11:41:38;98749.44;;;23.66;70.75
13241;BME280;6687;47.790;7.322;2022-09-03T11:44:17;98736.38;;;23.94;67.64
13241;BME280;6687;47.790;7.322;2022-09-03T11:46:52;98742.00;;;24.20;65.50
13241;BME280;6687;47.790;7.322;2022-09-03T11:49:26;98742.81;;;24.36;67.40
13241;BME280;6687;47.790;7.322;2022-09-03T11:51:58;98733.84;;;24.69;66.98
13241;BME280;6687;47.790;7.322;2022-09-03T11:54:26;98735.38;;;24.73;64.38
13241;BME280;6687;47.790;7.322;2022-09-03T11:57:12;98730.38;;;24.83;61.86
13241;BME280;6687;47.790;7.322;2022-09-03T11:59:40;98736.91;;;24.92;65.12
13241;BME280;6687;47.790;7.322;2022-09-03T12:02:25;98726.41;;;25.19;65.31
13241;BME280;6687;47.790;7.322;2022-09-03T12:05:06;98726.81;;;25.42;62.71
13241;BME280;6687;47.790;7.322;2022-09-03T12:07:59;98721.19;;;25.60;64.52
13241;BME280;6687;47.790;7.322;2022-09-03T12:10:38;98721.19;;;25.60;62.07
13241;BME280;6687;47.790;7.322;2022-09-03T12:13:23;98713.19;;;25.75;61.24
13241;BME280;6687;47.790;7.322;2022-09-03T12:16:25;98710.16;;;26.08;60.82
13241;BME280;6687;47.790;7.322;2022-09-03T12:18:54;98716.16;;;26.25;60.53
13241;BME280;6687;47.790;7.322;2022-09-03T12:21:22;98711.09;;;26.34;61.77
13241;BME280;6687;47.790;7.322;2022-09-03T12:23:52;98717.84;;;26.26;60.23
13241;BME280;6687;47.790;7.322;2022-09-03T12:26:21;98711.50;;;26.28;59.01
13241;BME280;6687;47.790;7.322;2022-09-03T12:28:51;98711.88;;;26.22;59.24
13241;BME280;6687;47.790;7.322;2022-09-03T12:31:20;98709.22;;;26.22;59.62
13241;BME280;6687;47.790;7.322;2022-09-03T12:33:50;98707.41;;;26.10;62.15
13241;BME280;6687;47.790;7.322;2022-09-03T12:36:18;98697.06;;;26.32;61.32
13241;BME280;6687;47.790;7.322;2022-09-03T12:38:45;98700.66;;;26.31;60.79
13241;BME280;6687;47.790;7.322;2022-09-03T12:41:22;98693.66;;;26.43;60.74
13241;BME280;6687;47.790;7.322;2022-09-03T12:43:51;98695.69;;;26.39;60.77
13241;BME280;6687;47.790;7.322;2022-09-03T12:46:22;98703.88;;;26.49;59.69
13241;BME280;6687;47.790;7.322;2022-09-03T12:48:53;98693.03;;;26.39;61.74
13241;BME280;6687;47.790;7.322;2022-09-03T12:51:20;98692.75;;;26.57;61.43
13241;BME280;6687;47.790;7.322;2022-09-03T12:53:48;98695.59;;;26.54;59.98
13241;BME280;6687;47.790;7.322;2022-09-03T12:56:17;98700.00;;;26.68;58.70
13241;BME280;6687;47.790;7.322;2022-09-03T12:58:49;98697.97;;;26.71;57.05
13241;BME280;6687;47.790;7.322;2022-09-03T13:01:25;98703.41;;;26.83;60.31
13241;BME280;6687;47.790;7.322;2022-09-03T13:04:01;98697.47;;;26.92;60.59
13241;BME280;6687;47.790;7.322;2022-09-03T13:06:32;98696.28;;;26.96;58.37
13241;BME280;6687;47.790;7.322;2022-09-03T13:09:03;98694.34;;;27.11;60.35
13241;BME280;6687;47.790;7.322;2022-09-03T13:11:32;98698.09;;;27.08;59.71
13241;BME280;6687;47.790;7.322;2022-09-03T13:14:03;98701.06;;;27.16;61.09
13241;BME280;6687;47.790;7.322;2022-09-03T13:16:59;98702.44;;;27.09;64.72
13241;BME280;6687;47.790;7.322;2022-09-03T13:19:36;98706.69;;;27.37;62.91
13241;BME280;6687;47.790;7.322;2022-09-03T13:22:14;98710.72;;;27.43;61.70
13241;BME280;6687;47.790;7.322;2022-09-03T13:24:56;98699.41;;;27.52;62.02
13241;BME280;6687;47.790;7.322;2022-09-03T13:27:31;98700.69;;;27.60;61.54
13241;BME280;6687;47.790;7.322;2022-09-03T13:30:08;98694.66;;;27.69;60.58
13241;BME280;6687;47.790;7.322;2022-09-03T13:32:43;98686.75;;;27.80;57.08
13241;BME280;6687;47.790;7.322;2022-09-03T13:35:23;98687.69;;;27.92;58.61
13241;BME280;6687;47.790;7.322;2022-09-03T13:37:55;98689.53;;;27.91;59.76
13241;BME280;6687;47.790;7.322;2022-09-03T13:40:31;98687.13;;;27.87;59.71
13241;BME280;6687;47.790;7.322;2022-09-03T13:43:03;98682.66;;;27.63;61.09
13241;BME280;6687;47.790;7.322;2022-09-03T13:45:36;98684.94;;;27.56;59.33
13241;BME280;6687;47.790;7.322;2022-09-03T13:48:09;98679.53;;;27.45;57.51
13241;BME280;6687;47.790;7.322;2022-09-03T13:51:01;98677.09;;;27.42;56.34
13241;BME280;6687;47.790;7.322;2022-09-03T13:53:35;98683.41;;;26.90;52.05
13241;BME280;6687;47.790;7.322;2022-09-03T13:56:15;98686.72;;;27.06;54.97
13241;BME280;6687;47.790;7.322;2022-09-03T13:58:48;98686.25;;;27.38;55.87
13241;BME280;6687;47.790;7.322;2022-09-03T14:01:23;98687.28;;;27.48;52.67
13241;BME280;6687;47.790;7.322;2022-09-03T14:03:52;98698.53;;;27.65;56.28
13241;BME280;6687;47.790;7.322;2022-09-03T14:06:36;98700.97;;;27.68;56.59
13241;BME280;6687;47.790;7.322;2022-09-03T14:09:13;98694.91;;;27.66;55.98
13241;BME280;6687;47.790;7.322;2022-09-03T14:11:49;98690.09;;;27.71;52.87
13241;BME280;6687;47.790;7.322;2022-09-03T14:14:30;98686.13;;;27.76;55.81
13241;BME280;6687;47.790;7.322;2022-09-03T14:17:09;98678.94;;;27.66;55.26
13241;BME280;6687;47.790;7.322;2022-09-03T14:19:45;98675.56;;;27.51;52.68
13241;BME280;6687;47.790;7.322;2022-09-03T14:22:19;98669.19;;;27.77;54.68
13241;BME280;6687;47.790;7.322;2022-09-03T14:24:50;98655.25;;;27.74;54.22
13241;BME280;6687;47.790;7.322;2022-09-03T14:27:23;98650.56;;;27.77;55.62
13241;BME280;6687;47.790;7.322;2022-09-03T14:29:56;98647.75;;;27.79;55.48
13241;BME280;6687;47.790;7.322;2022-09-03T14:32:34;98659.84;;;27.72;51.33
13241;BME280;6687;47.790;7.322;2022-09-03T14:35:17;98669.53;;;27.97;52.23
13241;BME280;6687;47.790;7.322;2022-09-03T14:41:26;98656.94;;;28.23;54.33
13241;BME280;6687;47.790;7.322;2022-09-03T14:44:18;98666.38;;;28.16;54.44
13241;BME280;6687;47.790;7.322;2022-09-03T14:47:06;98665.91;;;28.22;54.15
13241;BME280;6687;47.790;7.322;2022-09-03T14:50:01;98657.16;;;28.20;54.30
13241;BME280;6687;47.790;7.322;2022-09-03T14:52:42;98659.78;;;28.09;54.13
13241;BME280;6687;47.790;7.322;2022-09-03T14:55:24;98656.53;;;28.16;54.15
13241;BME280;6687;47.790;7.322;2022-09-03T14:58:26;98651.63;;;28.23;53.47
13241;BME280;6687;47.790;7.322;2022-09-03T15:00:59;98648.91;;;28.12;50.51
13241;BME280;6687;47.790;7.322;2022-09-03T15:04:05;98654.56;;;28.31;52.27
13241;BME280;6687;47.790;7.322;2022-09-03T15:06:48;98647.44;;;28.43;50.91
13241;BME280;6687;47.790;7.322;2022-09-03T15:09:25;98652.28;;;28.49;53.01
13241;BME280;6687;47.790;7.322;2022-09-03T15:11:57;98653.53;;;28.56;48.50
13241;BME280;6687;47.790;7.322;2022-09-03T15:14:29;98661.56;;;28.68;52.81
13241;BME280;6687;47.790;7.322;2022-09-03T15:17:16;98670.28;;;28.70;47.65
13241;BME280;6687;47.790;7.322;2022-09-03T15:20:08;98673.31;;;28.65;44.39
13241;BME280;6687;47.790;7.322;2022-09-03T15:25:47;98666.06;;;28.90;49.56
13241;BME280;6687;47.790;7.322;2022-09-03T15:28:22;98658.66;;;28.82;47.36
13241;BME280;6687;47.790;7.322;2022-09-03T15:30:56;98655.03;;;28.83;50.79
13241;BME280;6687;47.790;7.322;2022-09-03T15:33:31;98666.06;;;28.90;50.27
13241;BME280;6687;47.790;7.322;2022-09-03T15:36:08;98651.50;;;28.94;50.07
13241;BME280;6687;47.790;7.322;2022-09-03T15:38:45;98656.72;;;28.84;48.11
13241;BME280;6687;47.790;7.322;2022-09-03T15:41:29;98649.34;;;28.99;49.01
13241;BME280;6687;47.790;7.322;2022-09-03T15:44:00;98657.81;;;28.82;47.41
13241;BME280;6687;47.790;7.322;2022-09-03T15:46:36;98662.38;;;28.68;50.70
13241;BME280;6687;47.790;7.322;2022-09-03T15:49:08;98658.97;;;28.55;50.77
13241;BME280;6687;47.790;7.322;2022-09-03T15:51:56;98659.72;;;28.22;49.78
13241;BME280;6687;47.790;7.322;2022-09-03T15:54:34;98669.50;;;28.21;49.02
13241;BME280;6687;47.790;7.322;2022-09-03T15:57:11;98670.72;;;28.17;49.02
13241;BME280;6687;47.790;7.322;2022-09-03T15:59:41;98679.41;;;28.08;50.63
13241;BME280;6687;47.790;7.322;2022-09-03T16:02:14;98676.94;;;27.93;49.24
13241;BME280;6687;47.790;7.322;2022-09-03T16:04:58;98673.19;;;27.83;51.05
13241;BME280;6687;47.790;7.322;2022-09-03T16:07:40;98678.69;;;27.69;49.77
13241;BME280;6687;47.790;7.322;2022-09-03T16:10:15;98679.59;;;27.56;50.19
13241;BME280;6687;47.790;7.322;2022-09-03T16:12:51;98674.94;;;27.47;51.01
13241;BME280;6687;47.790;7.322;2022-09-03T16:15:26;98672.22;;;27.36;50.67
13241;BME280;6687;47.790;7.322;2022-09-03T16:17:58;98679.66;;;27.31;50.70
13241;BME280;6687;47.790;7.322;2022-09-03T16:20:34;98682.19;;;27.19;50.94
13241;BME280;6687;47.790;7.322;2022-09-03T16:23:06;98683.91;;;27.08;52.21
13241;BME280;6687;47.790;7.322;2022-09-03T16:25:46;98674.47;;;27.04;51.88
13241;BME280;6687;47.790;7.322;2022-09-03T16:28:18;98685.22;;;26.89;51.39
13241;BME280;6687;47.790;7.322;2022-09-03T16:30:55;98686.06;;;26.90;51.89
13241;BME280;6687;47.790;7.322;2022-09-03T16:33:34;98686.72;;;26.81;52.27
13241;BME280;6687;47.790;7.322;2022-09-03T16:36:22;98680.34;;;26.70;52.85
13241;BME280;6687;47.790;7.322;2022-09-03T16:38:59;98679.16;;;26.62;52.89
13241;BME280;6687;47.790;7.322;2022-09-03T16:41:33;98678.38;;;26.47;53.62
13241;BME280;6687;47.790;7.322;2022-09-03T16:44:06;98679.22;;;26.34;53.71
13241;BME280;6687;47.790;7.322;2022-09-03T16:46:42;98686.84;;;26.26;54.19
13241;BME280;6687;47.790;7.322;2022-09-03T16:49:37;98695.75;;;26.12;54.38
13241;BME280;6687;47.790;7.322;2022-09-03T16:52:11;98688.47;;;26.02;55.33
13241;BME280;6687;47.790;7.322;2022-09-03T16:54:49;98695.16;;;25.80;55.37
13241;BME280;6687;47.790;7.322;2022-09-03T16:57:24;98690.47;;;25.71;55.58
13241;BME280;6687;47.790;7.322;2022-09-03T17:00:03;98684.81;;;25.63;56.19
13241;BME280;6687;47.790;7.322;2022-09-03T17:05:55;98686.72;;;25.46;56.79
13241;BME280;6687;47.790;7.322;2022-09-03T17:08:30;98678.47;;;25.36;56.83
13241;BME280;6687;47.790;7.322;2022-09-03T17:11:08;98676.44;;;25.27;57.00
13241;BME280;6687;47.790;7.322;2022-09-03T17:13:51;98676.78;;;25.21;57.60
13241;BME280;6687;47.790;7.322;2022-09-03T17:16:30;98687.69;;;25.02;58.69
13241;BME280;6687;47.790;7.322;2022-09-03T17:19:04;98689.94;;;24.94;59.10
13241;BME280;6687;47.790;7.322;2022-09-03T17:21:46;98703.38;;;24.91;58.52
13241;BME280;6687;47.790;7.322;2022-09-03T17:24:32;98697.69;;;24.83;58.45
13241;BME280;6687;47.790;7.322;2022-09-03T17:27:24;98691.41;;;24.55;59.69
13241;BME280;6687;47.790;7.322;2022-09-03T17:30:06;98692.47;;;24.67;59.44
13241;BME280;6687;47.790;7.322;2022-09-03T17:32:48;98695.88;;;24.54;59.96
13241;BME280;6687;47.790;7.322;2022-09-03T17:35:31;98697.75;;;24.22;61.39
13241;BME280;6687;47.790;7.322;2022-09-03T17:38:12;98701.06;;;24.26;60.46
13241;BME280;6687;47.790;7.322;2022-09-03T17:40:56;98703.34;;;24.32;60.69
13241;BME280;6687;47.790;7.322;2022-09-03T17:43:30;98703.03;;;24.22;61.38
13241;BME280;6687;47.790;7.322;2022-09-03T17:46:08;98709.63;;;24.15;61.70
13241;BME280;6687;47.790;7.322;2022-09-03T17:48:47;98714.00;;;24.16;61.17
13241;BME280;6687;47.790;7.322;2022-09-03T17:51:24;98720.41;;;24.12;61.68
13241;BME280;6687;47.790;7.322;2022-09-03T17:53:56;98723.22;;;24.09;60.78
13241;BME280;6687;47.790;7.322;2022-09-03T17:56:27;98723.44;;;23.90;63.36
13241;BME280;6687;47.790;7.322;2022-09-03T17:59:03;98727.34;;;23.82;68.47
13241;BME280;6687;47.790;7.322;2022-09-03T18:01:36;98729.53;;;23.58;72.87
13241;BME280;6687;47.790;7.322;2022-09-03T18:04:17;98726.06;;;23.58;72.77
13241;BME280;6687;47.790;7.322;2022-09-03T18:06:55;98731.22;;;23.59;69.85
13241;BME280;6687;47.790;7.322;2022-09-03T18:09:29;98744.78;;;23.53;69.45
13241;BME280;6687;47.790;7.322;2022-09-03T18:12:06;98749.84;;;23.42;68.42
13241;BME280;6687;47.790;7.322;2022-09-03T18:14:41;98754.88;;;23.13;73.60
13241;BME280;6687;47.790;7.322;2022-09-03T18:17:18;98749.22;;;23.03;76.35
13241;BME280;6687;47.790;7.322;2022-09-03T18:19:50;98751.03;;;23.03;77.75
13241;BME280;6687;47.790;7.322;2022-09-03T18:22:39;98752.22;;;22.96;79.09
13241;BME280;6687;47.790;7.322;2022-09-03T18:25:27;98754.09;;;22.94;76.41
13241;BME280;6687;47.790;7.322;2022-09-03T18:28:14;98761.69;;;22.84;76.18
13241;BME280;6687;47.790;7.322;2022-09-03T18:31:00;98769.69;;;22.65;79.34
13241;BME280;6687;47.790;7.322;2022-09-03T18:33:44;98768.47;;;22.36;83.76
13241;BME280;6687;47.790;7.322;2022-09-03T18:36:30;98774.03;;;21.93;86.56
13241;BME280;6687;47.790;7.322;2022-09-03T18:39:22;98777.09;;;22.03;86.35
13241;BME280;6687;47.790;7.322;2022-09-03T18:42:14;98774.81;;;21.95;86.19
13241;BME280;6687;47.790;7.322;2022-09-03T18:45:10;98770.91;;;21.85;85.15
13241;BME280;6687;47.790;7.322;2022-09-03T18:48:07;98779.31;;;21.93;83.96
13241;BME280;6687;47.790;7.322;2022-09-03T18:50:59;98777.28;;;21.81;83.43
13241;BME280;6687;47.790;7.322;2022-09-03T18:53:56;98776.78;;;21.73;83.60
13241;BME280;6687;47.790;7.322;2022-09-03T18:56:47;98782.59;;;21.60;84.37
13241;BME280;6687;47.790;7.322;2022-09-03T18:59:56;98788.25;;;21.53;84.60
13241;BME280;6687;47.790;7.322;2022-09-03T19:02:50;98791.44;;;21.20;87.01
13241;BME280;6687;47.790;7.322;2022-09-03T19:05:42;98785.72;;;21.10;87.92
13241;BME280;6687;47.790;7.322;2022-09-03T19:08:37;98781.69;;;21.22;86.89
13241;BME280;6687;47.790;7.322;2022-09-03T19:11:28;98780.88;;;21.20;86.31
13241;BME280;6687;47.790;7.322;2022-09-03T19:14:22;98783.00;;;21.12;86.63
13241;BME280;6687;47.790;7.322;2022-09-03T19:17:16;98794.81;;;21.03;86.79
13241;BME280;6687;47.790;7.322;2022-09-03T19:20:07;98792.38;;;20.98;86.58
13241;BME280;6687;47.790;7.322;2022-09-03T19:22:56;98805.22;;;20.85;86.85
13241;BME280;6687;47.790;7.322;2022-09-03T19:25:40;98812.34;;;20.83;86.32
13241;BME280;6687;47.790;7.322;2022-09-03T19:28:28;98809.06;;;20.77;85.52
13241;BME280;6687;47.790;7.322;2022-09-03T19:31:35;98814.91;;;20.63;85.65
13241;BME280;6687;47.790;7.322;2022-09-03T19:34:40;98821.25;;;20.59;85.08
13241;BME280;6687;47.790;7.322;2022-09-03T19:37:32;98829.22;;;20.35;86.06
13241;BME280;6687;47.790;7.322;2022-09-03T19:40:37;98826.88;;;20.27;87.48
13241;BME280;6687;47.790;7.322;2022-09-03T19:43:31;98826.13;;;20.24;87.08
13241;BME280;6687;47.790;7.322;2022-09-03T19:46:25;98836.53;;;20.27;86.85
13241;BME280;6687;47.790;7.322;2022-09-03T19:49:19;98836.22;;;20.13;88.54
13241;BME280;6687;47.790;7.322;2022-09-03T19:52:12;98831.09;;;20.10;88.98
13241;BME280;6687;47.790;7.322;2022-09-03T19:54:58;98835.78;;;20.01;89.40
13241;BME280;6687;47.790;7.322;2022-09-03T19:57:47;98844.34;;;20.06;88.86
13241;BME280;6687;47.790;7.322;2022-09-03T20:00:37;98839.00;;;20.10;87.69
13241;BME280;6687;47.790;7.322;2022-09-03T20:03:23;98844.09;;;19.91;88.31
13241;BME280;6687;47.790;7.322;2022-09-03T20:06:08;98849.94;;;19.97;87.12
13241;BME280;6687;47.790;7.322;2022-09-03T20:09:03;98844.03;;;19.92;87.28
13241;BME280;6687;47.790;7.322;2022-09-03T20:11:50;98845.41;;;19.79;87.11
13241;BME280;6687;47.790;7.322;2022-09-03T20:14:18;98855.69;;;19.85;86.65
13241;BME280;6687;47.790;7.322;2022-09-03T20:16:59;98852.38;;;19.80;87.03
13241;BME280;6687;47.790;7.322;2022-09-03T20:19:36;98854.44;;;19.72;86.56
13241;BME280;6687;47.790;7.322;2022-09-03T20:22:15;98851.84;;;19.70;85.24
13241;BME280;6687;47.790;7.322;2022-09-03T20:24:51;98858.94;;;19.68;84.41
13241;BME280;6687;47.790;7.322;2022-09-03T20:27:32;98862.69;;;19.61;84.83